createdAt,value
2022-11-16T00:01:30.541Z,99843.00
2022-11-16T00:03:59.769Z,99835.91
2022-11-16T00:06:27.888Z,99827.91
2022-11-16T00:09:19.651Z,99826.13
2022-11-16T00:11:52.721Z,99820.91
2022-11-16T00:14:21.246Z,99820.03
2022-11-16T00:16:48.259Z,99834.22
2022-11-16T00:19:15.187Z,99828.91
2022-11-16T00:21:42.385Z,99828.00
2022-11-16T00:24:16.035Z,99828.00
2022-11-16T00:26:43.257Z,99823.59
2022-11-16T00:29:15.745Z,99818.28
2022-11-16T00:31:44.552Z,99825.38
2022-11-16T00:34:11.419Z,99821.00
2022-11-16T00:36:38.281Z,99826.34
2022-11-16T00:39:05.391Z,99821.91
2022-11-16T00:41:32.169Z,99815.75
2022-11-16T00:43:58.979Z,99824.69
2022-11-16T00:46:25.772Z,99815.84
2022-11-16T00:48:52.586Z,99806.16
2022-11-16T00:51:25.442Z,99816.84
2022-11-16T00:53:52.215Z,99816.97
2022-11-16T00:56:19.015Z,99809.03
2022-11-16T00:58:45.825Z,99809.03
2022-11-16T01:01:13.049Z,99814.44
2022-11-16T01:03:40.104Z,99802.94
2022-11-16T01:06:10.717Z,99813.63
2022-11-16T01:08:39.436Z,99805.72
2022-11-16T01:11:26.815Z,99790.66
2022-11-16T01:13:54.669Z,99788.09
2022-11-16T01:16:23.643Z,99786.31
2022-11-16T01:18:53.616Z,99781.97
2022-11-16T01:21:21.844Z,99783.75
2022-11-16T01:23:48.810Z,99782.00
2022-11-16T01:26:15.649Z,99786.50
2022-11-16T01:28:42.420Z,99765.28
2022-11-16T01:31:10.367Z,99775.06
2022-11-16T01:33:38.005Z,99772.47
2022-11-16T01:36:14.548Z,99772.47
2022-11-16T01:38:46.318Z,99766.25
2022-11-16T01:41:23.937Z,99763.63
2022-11-16T01:43:59.874Z,99761.88
2022-11-16T01:46:28.231Z,99760.16
2022-11-16T01:49:04.527Z,99757.50
2022-11-16T01:51:32.764Z,99755.75
2022-11-16T01:54:01.845Z,99750.44
2022-11-16T01:56:31.683Z,99753.13
2022-11-16T01:58:58.653Z,99754.91
2022-11-16T02:01:25.490Z,99751.44
2022-11-16T02:03:52.313Z,99749.69
2022-11-16T02:06:32.414Z,99731.03
2022-11-16T02:09:59.381Z,99731.19
2022-11-16T02:12:49.001Z,99725.06
2022-11-16T02:15:30.201Z,99726.91
2022-11-16T02:18:44.097Z,99719.00
2022-11-16T02:21:36.293Z,99722.59
2022-11-16T02:24:42.547Z,99720.94
2022-11-16T02:28:11.432Z,99725.38
2022-11-16T02:30:44.789Z,99728.91
2022-11-16T02:33:21.192Z,99736.84
2022-11-16T02:35:52.676Z,99731.47
2022-11-16T02:38:31.993Z,99729.63
2022-11-16T02:41:06.485Z,99724.34
2022-11-16T02:43:42.856Z,99723.41
2022-11-16T02:46:18.851Z,99721.66
2022-11-16T02:48:50.527Z,99727.97
2022-11-16T02:51:19.482Z,99724.44
2022-11-16T02:54:12.738Z,99732.44
2022-11-16T02:57:04.726Z,99738.66
2022-11-16T02:59:49.013Z,99732.44
2022-11-16T03:02:25.497Z,99739.56
2022-11-16T03:05:31.821Z,99730.69
2022-11-16T03:08:33.996Z,99736.09
2022-11-16T03:11:25.377Z,99736.91
2022-11-16T03:14:00.015Z,99730.75
2022-11-16T03:16:32.502Z,99732.56
2022-11-16T03:19:03.241Z,99725.50
2022-11-16T03:21:50.588Z,99731.78
2022-11-16T03:24:17.620Z,99735.41
2022-11-16T03:27:18.314Z,99738.16
2022-11-16T03:30:06.042Z,99748.09
2022-11-16T03:32:55.081Z,99749.06
2022-11-16T03:35:24.806Z,99745.63
2022-11-16T03:37:55.478Z,99745.63
2022-11-16T03:40:24.627Z,99755.50
2022-11-16T03:42:52.167Z,99753.81
2022-11-16T03:45:19.966Z,99756.59
2022-11-16T03:47:46.862Z,99762.91
2022-11-16T03:50:13.751Z,99761.19
2022-11-16T03:52:41.289Z,99771.00
2022-11-16T03:55:08.608Z,99763.03
2022-11-16T03:57:35.359Z,99763.91
2022-11-16T04:00:02.467Z,99761.38
2022-11-16T04:02:29.256Z,99754.41
2022-11-16T04:05:14.420Z,99752.75
2022-11-16T04:07:59.729Z,99737.81
2022-11-16T04:10:44.787Z,99746.84
2022-11-16T04:13:32.277Z,99738.94
2022-11-16T04:16:17.904Z,99747.09
2022-11-16T04:19:03.075Z,99742.78
2022-11-16T04:22:02.779Z,99751.75
2022-11-16T04:24:35.949Z,99755.41
2022-11-16T04:27:25.888Z,99747.41
2022-11-16T04:29:54.220Z,99757.19
2022-11-16T04:32:39.359Z,99763.44
2022-11-16T04:35:24.565Z,99767.91
2022-11-16T04:37:53.240Z,99766.25
2022-11-16T04:40:26.352Z,99772.44
2022-11-16T04:43:01.303Z,99768.09
2022-11-16T04:45:47.025Z,99768.22
2022-11-16T04:48:15.914Z,99769.19
2022-11-16T04:50:43.657Z,99769.25
2022-11-16T04:53:10.877Z,99769.31
2022-11-16T04:55:37.824Z,99777.38
2022-11-16T04:58:05.381Z,99775.72
2022-11-16T05:00:32.733Z,99770.47
2022-11-16T05:03:01.588Z,99773.25
2022-11-16T05:05:28.792Z,99769.72
2022-11-16T05:07:55.613Z,99777.78
2022-11-16T05:10:22.500Z,99761.88
2022-11-16T05:12:49.240Z,99761.09
2022-11-16T05:15:17.607Z,99767.34
2022-11-16T05:17:44.450Z,99761.19
2022-11-16T05:20:30.214Z,99753.38
2022-11-16T05:22:58.260Z,99757.91
2022-11-16T05:25:25.487Z,99765.91
2022-11-16T05:27:52.270Z,99760.69
2022-11-16T05:30:19.124Z,99768.72
2022-11-16T05:32:46.157Z,99759.00
2022-11-16T05:35:12.914Z,99760.84
2022-11-16T05:37:39.745Z,99756.47
2022-11-16T05:40:07.469Z,99757.38
2022-11-16T05:42:34.431Z,99754.72
2022-11-16T05:45:01.268Z,99751.25
2022-11-16T05:47:28.177Z,99750.44
2022-11-16T05:49:54.938Z,99751.41
2022-11-16T05:52:21.709Z,99748.81
2022-11-16T05:54:48.477Z,99750.66
2022-11-16T05:57:15.367Z,99748.06
2022-11-16T05:59:42.529Z,99751.66
2022-11-16T06:02:09.288Z,99766.75
2022-11-16T06:04:36.044Z,99780.09
2022-11-16T06:07:02.915Z,99786.28
2022-11-16T06:09:29.772Z,99793.34
2022-11-16T06:11:56.552Z,99772.06
2022-11-16T06:14:23.515Z,99774.78
2022-11-16T06:16:50.277Z,99792.47
2022-11-16T06:19:17.037Z,99796.03
2022-11-16T06:21:43.801Z,99797.81
2022-11-16T06:24:10.611Z,99799.59
2022-11-16T06:26:37.452Z,99795.19
2022-11-16T06:29:04.797Z,99789.94
2022-11-16T06:31:31.682Z,99796.19
2022-11-16T06:33:58.515Z,99791.91
2022-11-16T06:36:25.309Z,99789.34
2022-11-16T06:38:52.139Z,99793.78
2022-11-16T06:41:19.348Z,99789.38
2022-11-16T06:43:46.294Z,99793.84
2022-11-16T06:46:13.269Z,99791.19
2022-11-16T06:48:40.080Z,99792.09
2022-11-16T06:51:06.923Z,99806.28
2022-11-16T06:53:34.185Z,99805.41
2022-11-16T06:56:05.644Z,99799.22
2022-11-16T06:58:33.380Z,99805.44
2022-11-16T07:01:11.845Z,99801.94
2022-11-16T07:03:39.104Z,99799.31
2022-11-16T07:06:11.119Z,99796.66
2022-11-16T07:08:38.548Z,99796.69
2022-11-16T07:11:07.550Z,99797.59
2022-11-16T07:13:36.243Z,99796.72
2022-11-16T07:16:08.579Z,99800.25
2022-11-16T07:18:37.643Z,99803.78
2022-11-16T07:21:08.659Z,99802.94
2022-11-16T07:23:36.520Z,99801.22
2022-11-16T07:26:05.809Z,99806.53
2022-11-16T07:28:33.589Z,99798.59
2022-11-16T07:31:06.422Z,99794.22
2022-11-16T07:33:34.024Z,99804.88
2022-11-16T07:36:10.403Z,99797.84
2022-11-16T07:38:37.398Z,99798.75
2022-11-16T07:41:11.232Z,99798.78
2022-11-16T07:43:38.075Z,99795.34
2022-11-16T07:46:45.959Z,99803.28
2022-11-16T07:49:00.407Z,99804.19
2022-11-16T07:51:27.264Z,99794.47
2022-11-16T07:53:55.902Z,99800.63
2022-11-16T07:56:22.985Z,99802.41
2022-11-16T07:58:49.767Z,99795.34
2022-11-16T08:01:18.578Z,99791.88
2022-11-16T08:03:46.313Z,99795.41
2022-11-16T08:06:26.751Z,99793.63
2022-11-16T08:08:57.975Z,99797.19
2022-11-16T08:11:26.135Z,99795.44
2022-11-16T08:13:53.038Z,99797.19
2022-11-16T08:16:22.298Z,99798.94
2022-11-16T08:18:49.193Z,99794.53
2022-11-16T08:21:17.873Z,99806.88
2022-11-16T08:23:45.254Z,99805.09
2022-11-16T08:26:18.775Z,99812.19
2022-11-16T08:28:48.056Z,99810.41
2022-11-16T08:31:21.530Z,99811.31
2022-11-16T08:33:48.304Z,99804.31
2022-11-16T08:36:17.643Z,99801.59
2022-11-16T08:38:49.734Z,99802.47
2022-11-16T08:41:17.855Z,99813.97
2022-11-16T08:43:46.989Z,99808.72
2022-11-16T08:46:14.085Z,99814.91
2022-11-16T08:48:41.263Z,99818.44
2022-11-16T08:51:20.590Z,99827.25
2022-11-16T08:53:49.308Z,99832.56
2022-11-16T08:56:18.402Z,99836.03
2022-11-16T08:58:51.374Z,99838.75
2022-11-16T09:01:23.981Z,99831.69
2022-11-16T09:03:52.185Z,99829.09
2022-11-16T09:06:19.216Z,99833.50
2022-11-16T09:08:46.891Z,99830.88
2022-11-16T09:11:18.316Z,99836.16
2022-11-16T09:13:47.834Z,99834.41
2022-11-16T09:16:16.564Z,99843.28
2022-11-16T09:18:45.548Z,99847.66
2022-11-16T09:21:16.116Z,99844.09
2022-11-16T09:23:42.862Z,99855.53
2022-11-16T09:26:09.659Z,99866.13
2022-11-16T09:28:36.749Z,99853.75
2022-11-16T09:31:05.889Z,99861.72
2022-11-16T09:33:34.307Z,99860.81
2022-11-16T09:36:07.841Z,99859.94
2022-11-16T09:42:15.728Z,99849.34
2022-11-16T09:45:04.554Z,99859.06
2022-11-16T09:47:40.840Z,99858.19
2022-11-16T09:50:39.289Z,99851.00
2022-11-16T09:53:53.028Z,99858.94
2022-11-16T09:56:23.968Z,99860.69
2022-11-16T09:59:02.873Z,99851.81
2022-11-16T10:01:48.803Z,99848.25
2022-11-16T10:04:29.133Z,99858.84
2022-11-16T10:07:22.650Z,99856.19
2022-11-16T10:09:49.863Z,99857.03
2022-11-16T10:12:35.524Z,99849.94
2022-11-16T10:15:06.611Z,99852.63
2022-11-16T10:18:02.422Z,99854.38
2022-11-16T10:21:12.883Z,99848.25
2022-11-16T10:23:57.532Z,99840.25
2022-11-16T10:26:37.935Z,99838.63
2022-11-16T10:29:35.112Z,99830.66
2022-11-16T10:32:29.721Z,99831.56
2022-11-16T10:35:09.091Z,99818.28
2022-11-16T10:37:41.360Z,99828.88
2022-11-16T10:40:23.145Z,99819.13
2022-11-16T10:43:00.382Z,99815.56
2022-11-16T10:45:45.992Z,99807.63
2022-11-16T10:48:58.413Z,99816.44
2022-11-16T10:51:25.209Z,99805.00
2022-11-16T10:53:53.090Z,99812.03
2022-11-16T10:56:28.751Z,99816.41
2022-11-16T10:59:02.172Z,99812.00
2022-11-16T11:01:37.658Z,99806.66
2022-11-16T11:04:18.564Z,99820.78
2022-11-16T11:06:48.887Z,99818.97
2022-11-16T11:09:28.738Z,99815.44
2022-11-16T11:12:22.629Z,99818.03
2022-11-16T11:15:26.335Z,99802.25
2022-11-16T11:18:15.498Z,99809.31
2022-11-16T11:20:46.900Z,99813.75
2022-11-16T11:23:22.134Z,99803.16
2022-11-16T11:25:57.787Z,99811.16
2022-11-16T11:28:31.661Z,99812.94
2022-11-16T11:31:25.953Z,99812.09
2022-11-16T11:33:57.713Z,99809.47
2022-11-16T11:36:34.088Z,99813.88
2022-11-16T11:39:21.101Z,99810.41
2022-11-16T11:42:19.627Z,99819.19
2022-11-16T11:44:57.520Z,99807.69
2022-11-16T11:48:05.104Z,99813.91
2022-11-16T11:50:44.785Z,99807.78
2022-11-16T11:53:38.948Z,99811.38
2022-11-16T11:56:06.633Z,99804.31
2022-11-16T11:58:37.342Z,99811.38
2022-11-16T12:01:25.639Z,99808.72
2022-11-16T12:04:22.145Z,99812.31
2022-11-16T12:07:03.617Z,99809.63
2022-11-16T12:09:53.199Z,99801.75
2022-11-16T12:12:56.701Z,99806.19
2022-11-16T12:15:35.731Z,99807.03
2022-11-16T12:18:14.157Z,99804.44
2022-11-16T12:21:00.102Z,99808.88
2022-11-16T12:24:03.919Z,99801.88
2022-11-16T12:27:00.439Z,99808.06
2022-11-16T12:29:40.438Z,99813.41
2022-11-16T12:33:02.057Z,99809.91
2022-11-16T12:36:36.387Z,99803.78
2022-11-16T12:39:28.908Z,99794.00
2022-11-16T12:42:34.741Z,99797.59
2022-11-16T12:45:34.037Z,99799.38
2022-11-16T12:48:31.995Z,99804.66
2022-11-16T12:51:11.600Z,99801.13
2022-11-16T12:54:06.161Z,99803.78
2022-11-16T12:56:48.667Z,99803.81
2022-11-16T12:59:49.045Z,99804.72
2022-11-16T13:03:16.763Z,99803.00
2022-11-16T13:05:53.770Z,99801.25
2022-11-16T13:08:49.206Z,99803.00
2022-11-16T13:11:21.907Z,99803.00
2022-11-16T13:13:56.062Z,99807.38
2022-11-16T13:16:24.700Z,99802.09
2022-11-16T13:18:53.919Z,99807.38
2022-11-16T13:21:47.904Z,99802.97
2022-11-16T13:24:54.619Z,99801.19
2022-11-16T13:27:49.871Z,99805.59
2022-11-16T13:30:26.013Z,99799.41
2022-11-16T13:33:13.809Z,99799.41
2022-11-16T13:35:40.560Z,99795.88
2022-11-16T13:38:13.724Z,99795.88
2022-11-16T13:40:41.256Z,99787.94
2022-11-16T13:43:10.934Z,99788.78
2022-11-16T13:45:49.520Z,99785.19
2022-11-16T13:48:21.557Z,99781.63
2022-11-16T13:50:56.039Z,99780.75
2022-11-16T13:56:15.937Z,99771.97
2022-11-16T13:59:00.929Z,99784.34
2022-11-16T14:02:28.376Z,99763.28
2022-11-16T14:05:01.974Z,99779.19
2022-11-16T14:07:46.371Z,99769.53
2022-11-16T14:10:33.262Z,99765.19
2022-11-16T14:13:05.128Z,99771.38
2022-11-16T14:15:34.032Z,99773.09
2022-11-16T14:18:32.117Z,99776.59
2022-11-16T14:21:08.442Z,99771.31
2022-11-16T14:24:02.851Z,99773.13
2022-11-16T14:27:09.963Z,99774.09
2022-11-16T14:30:09.932Z,99771.44
2022-11-16T14:32:45.961Z,99782.03
2022-11-16T14:35:40.257Z,99771.50
2022-11-16T14:38:21.927Z,99785.56
2022-11-16T14:40:57.783Z,99780.28
2022-11-16T14:43:54.869Z,99785.56
2022-11-16T14:46:35.656Z,99781.16
2022-11-16T14:49:03.032Z,99786.44
2022-11-16T14:51:34.964Z,99786.44
2022-11-16T14:54:39.112Z,99787.34
2022-11-16T14:57:13.628Z,99795.28
2022-11-16T14:59:40.378Z,99788.22
2022-11-16T15:02:27.160Z,99777.59
2022-11-16T15:04:54.664Z,99782.91
2022-11-16T15:07:26.248Z,99781.16
2022-11-16T15:09:56.585Z,99774.97
2022-11-16T15:12:42.245Z,99772.38
2022-11-16T15:15:11.762Z,99769.72
2022-11-16T15:17:42.162Z,99767.09
2022-11-16T15:20:22.105Z,99770.56
2022-11-16T15:22:55.329Z,99766.16
2022-11-16T15:25:30.499Z,99774.97
2022-11-16T15:28:20.026Z,99775.00
2022-11-16T15:30:51.054Z,99762.66
2022-11-16T15:33:33.571Z,99771.50
2022-11-16T15:36:00.650Z,99776.78
2022-11-16T15:38:32.769Z,99769.69
2022-11-16T15:41:04.841Z,99775.88
2022-11-16T15:43:45.211Z,99774.97
2022-11-16T15:46:17.760Z,99782.94
2022-11-16T15:48:45.534Z,99778.50
2022-11-16T15:51:24.260Z,99786.44
2022-11-16T15:53:54.361Z,99795.25
2022-11-16T15:56:27.082Z,99790.84
2022-11-16T15:59:02.466Z,99785.56
2022-11-16T16:01:30.424Z,99788.22
2022-11-16T16:04:05.017Z,99784.63
2022-11-16T16:06:53.228Z,99774.09
2022-11-16T16:09:39.680Z,99780.25
2022-11-16T16:12:23.604Z,99773.22
2022-11-16T16:14:52.375Z,99773.25
2022-11-16T16:17:30.565Z,99777.63
2022-11-16T16:20:04.047Z,99771.47
2022-11-16T16:22:34.527Z,99771.50
2022-11-16T16:25:01.962Z,99760.91
2022-11-16T16:27:31.620Z,99762.69
2022-11-16T16:30:05.352Z,99760.03
2022-11-16T16:32:37.722Z,99758.25
2022-11-16T16:35:08.424Z,99771.50
2022-11-16T16:37:35.988Z,99764.47
2022-11-16T16:40:03.480Z,99773.31
2022-11-16T16:42:30.287Z,99778.59
2022-11-16T16:44:59.929Z,99783.88
2022-11-16T16:47:26.706Z,99785.66
2022-11-16T16:49:53.604Z,99782.06
2022-11-16T16:52:20.405Z,99779.41
2022-11-16T16:54:47.207Z,99778.53
2022-11-16T16:57:15.774Z,99767.94
2022-11-16T16:59:45.287Z,99774.13
2022-11-16T17:02:14.896Z,99775.00
2022-11-16T17:04:43.870Z,99773.25
2022-11-16T17:07:10.766Z,99783.84
2022-11-16T17:09:37.543Z,99778.53
2022-11-16T17:12:04.554Z,99790.03
2022-11-16T17:14:31.327Z,99795.31
2022-11-16T17:16:58.136Z,99797.94
2022-11-16T17:19:25.039Z,99797.97
2022-11-16T17:21:52.340Z,99795.28
2022-11-16T17:24:19.303Z,99789.16
2022-11-16T17:26:48.583Z,99785.59
2022-11-16T17:29:15.474Z,99780.31
2022-11-16T17:31:44.070Z,99785.59
2022-11-16T17:34:13.699Z,99794.41
2022-11-16T17:36:41.938Z,99779.44
2022-11-16T17:39:09.000Z,99782.06
2022-11-16T17:41:35.906Z,99781.22
2022-11-16T17:44:03.701Z,99780.34
2022-11-16T17:46:30.473Z,99780.34
2022-11-16T17:48:57.310Z,99772.41
2022-11-16T17:51:25.227Z,99768.91
2022-11-16T17:53:52.510Z,99768.91
2022-11-16T17:56:23.200Z,99760.06
2022-11-16T17:58:51.530Z,99767.13
2022-11-16T18:01:19.198Z,99771.50
2022-11-16T18:03:46.076Z,99778.59
2022-11-16T18:06:19.463Z,99774.19
2022-11-16T18:08:46.693Z,99775.06
2022-11-16T18:11:19.917Z,99779.53
2022-11-16T18:13:47.635Z,99765.41
2022-11-16T18:16:17.783Z,99766.31
2022-11-16T18:18:46.721Z,99761.00
2022-11-16T18:21:20.466Z,99762.75
2022-11-16T18:23:47.911Z,99761.09
2022-11-16T18:26:17.668Z,99769.88
2022-11-16T18:28:48.667Z,99765.47
2022-11-16T18:31:18.114Z,99762.78
2022-11-16T18:33:45.307Z,99760.13
2022-11-16T18:36:12.872Z,99762.78
2022-11-16T18:38:39.697Z,99764.53
2022-11-16T18:41:16.616Z,99773.34
2022-11-16T18:43:59.675Z,99785.66
2022-11-16T18:46:29.398Z,99775.97
2022-11-16T18:48:57.088Z,99771.59
2022-11-16T18:51:26.950Z,99762.75
2022-11-16T18:53:54.112Z,99768.06
2022-11-16T18:56:21.095Z,99759.25
2022-11-16T18:58:51.000Z,99761.88
2022-11-16T19:01:25.506Z,99762.75
2022-11-16T19:03:54.649Z,99763.66
2022-11-16T19:06:23.025Z,99762.72
2022-11-16T19:09:06.187Z,99768.00
2022-11-16T19:11:32.967Z,99761.81
2022-11-16T19:14:07.582Z,99771.50
2022-11-16T19:16:34.589Z,99777.66
2022-11-16T19:19:01.502Z,99775.00
2022-11-16T19:21:28.624Z,99770.59
2022-11-16T19:23:57.021Z,99770.66
2022-11-16T19:26:27.121Z,99768.00
2022-11-16T19:28:54.611Z,99753.03
2022-11-16T19:31:28.735Z,99747.78
2022-11-16T19:34:15.837Z,99752.19
2022-11-16T19:36:42.581Z,99749.56
2022-11-16T19:39:09.390Z,99743.38
2022-11-16T19:41:36.213Z,99745.13
2022-11-16T19:44:03.142Z,99742.50
2022-11-16T19:46:33.026Z,99738.97
2022-11-16T19:49:00.312Z,99743.44
2022-11-16T19:51:33.301Z,99735.50
2022-11-16T19:54:01.413Z,99737.25
2022-11-16T19:56:29.107Z,99732.84
2022-11-16T19:58:55.879Z,99725.81
2022-11-16T20:01:27.699Z,99738.19
2022-11-16T20:03:57.563Z,99748.78
2022-11-16T20:06:28.990Z,99749.69
2022-11-16T20:09:00.389Z,99757.66
2022-11-16T20:11:33.983Z,99754.09
2022-11-16T20:14:02.328Z,99748.88
2022-11-16T20:16:38.439Z,99738.28
2022-11-16T20:19:08.461Z,99733.03
2022-11-16T20:21:41.213Z,99732.16
2022-11-16T20:24:14.651Z,99733.03
2022-11-16T20:26:45.033Z,99732.22
2022-11-16T20:29:13.774Z,99735.69
2022-11-16T20:31:42.756Z,99742.78
2022-11-16T20:34:14.109Z,99745.44
2022-11-16T20:36:43.684Z,99748.97
2022-11-16T20:39:17.110Z,99744.56
2022-11-16T20:41:44.358Z,99747.22
2022-11-16T20:44:19.408Z,99750.75
2022-11-16T20:46:46.208Z,99748.09
2022-11-16T20:49:13.089Z,99748.97
2022-11-16T20:51:40.388Z,99752.50
2022-11-16T20:54:07.313Z,99757.78
2022-11-16T20:56:34.308Z,99761.31
2022-11-16T20:59:01.958Z,99756.91
2022-11-16T21:01:31.379Z,99748.09
2022-11-16T21:04:01.547Z,99759.59
2022-11-16T21:06:28.666Z,99752.56
2022-11-16T21:08:56.208Z,99760.44
2022-11-16T21:11:30.384Z,99756.03
2022-11-16T21:14:16.100Z,99747.25
2022-11-16T21:16:43.388Z,99734.03
2022-11-16T21:19:11.032Z,99722.59
2022-11-16T21:21:40.331Z,99722.59
2022-11-16T21:24:08.981Z,99719.94
2022-11-16T21:26:37.143Z,99718.22
2022-11-16T21:29:04.552Z,99720.00
2022-11-16T21:31:36.390Z,99715.53
2022-11-16T21:34:03.637Z,99710.25
2022-11-16T21:36:32.104Z,99714.66
2022-11-16T21:38:59.657Z,99727.00
2022-11-16T21:41:26.893Z,99715.53
2022-11-16T21:43:53.926Z,99718.19
2022-11-16T21:46:26.100Z,99723.47
2022-11-16T21:48:55.361Z,99729.69
2022-11-16T21:51:25.190Z,99729.63
2022-11-16T21:53:52.536Z,99736.69
2022-11-16T21:56:22.782Z,99727.91
2022-11-16T21:58:52.578Z,99734.94
2022-11-16T22:01:20.222Z,99740.22
2022-11-16T22:03:48.361Z,99744.63
2022-11-16T22:06:35.206Z,99743.75
2022-11-16T22:09:02.517Z,99734.94
2022-11-16T22:11:29.311Z,99718.19
2022-11-16T22:13:56.086Z,99711.19
2022-11-16T22:16:23.358Z,99704.13
2022-11-16T22:18:50.451Z,99703.25
2022-11-16T22:21:17.413Z,99694.44
2022-11-16T22:23:44.233Z,99680.38
2022-11-16T22:26:13.020Z,99699.75
2022-11-16T22:28:40.306Z,99692.72
2022-11-16T22:31:13.237Z,99692.72
2022-11-16T22:33:40.633Z,99695.38
2022-11-16T22:36:09.474Z,99691.84
2022-11-16T22:38:36.624Z,99696.25
2022-11-16T22:41:03.599Z,99698.91
2022-11-16T22:43:31.786Z,99692.72
2022-11-16T22:46:05.069Z,99683.03
2022-11-16T22:48:38.356Z,99692.72
2022-11-16T22:51:17.952Z,99684.78
2022-11-16T22:53:44.749Z,99691.00
2022-11-16T22:56:11.700Z,99686.56
2022-11-16T22:58:39.124Z,99692.72
2022-11-16T23:01:08.220Z,99694.50
2022-11-16T23:03:36.154Z,99709.47
2022-11-16T23:06:04.179Z,99691.84
2022-11-16T23:08:31.693Z,99684.84
2022-11-16T23:11:28.661Z,99689.22
2022-11-16T23:14:14.257Z,99683.97
2022-11-16T23:16:42.215Z,99668.13
2022-11-16T23:19:29.897Z,99657.56
2022-11-16T23:22:16.027Z,99661.09
2022-11-16T23:25:02.213Z,99649.66
2022-11-16T23:27:56.984Z,99644.41
2022-11-16T23:30:24.410Z,99646.19
2022-11-16T23:32:51.645Z,99643.53
2022-11-16T23:35:18.804Z,99643.53
2022-11-16T23:38:04.176Z,99632.91
2022-11-16T23:40:36.056Z,99634.69
2022-11-16T23:43:39.031Z,99632.06
2022-11-16T23:46:05.901Z,99625.91
2022-11-16T23:48:32.663Z,99622.44
2022-11-16T23:50:59.421Z,99610.09
2022-11-16T23:53:26.199Z,99608.34
2022-11-16T23:55:52.971Z,99606.56
2022-11-16T23:58:19.768Z,99610.09
